sensor_id;sensor_type;location;lat;lon;timestamp;pressure;altitude;pressure_sealevel;temperature;humidity
24031;BME280;12240;51.142;22.486;2023-07-13T00:01:16;62174.59;;;-142.46;100.00
24031;BME280;12240;51.142;22.486;2023-07-13T00:03:45;62174.59;;;-142.46;100.00
24031;BME280;12240;51.142;22.486;2023-07-13T00:06:13;62174.59;;;-142.46;100.00
24031;BME280;12240;51.142;22.486;2023-07-13T00:08:42;62174.59;;;-142.46;100.00
24031;BME280;12240;51.142;22.486;2023-07-13T00:11:10;62174.59;;;-142.46;100.00
24031;BME280;12240;51.142;22.486;2023-07-13T00:13:39;62174.59;;;-142.46;100.00
24031;BME280;12240;51.142;22.486;2023-07-13T00:16:09;62174.59;;;-142.46;100.00
24031;BME280;12240;51.142;22.486;2023-07-13T00:18:38;62174.59;;;-142.46;100.00
24031;BME280;12240;51.142;22.486;2023-07-13T00:21:06;62174.59;;;-142.46;100.00
24031;BME280;12240;51.142;22.486;2023-07-13T00:23:37;62174.59;;;-142.46;100.00
24031;BME280;12240;51.142;22.486;2023-07-13T00:26:08;62174.59;;;-142.46;100.00
24031;BME280;12240;51.142;22.486;2023-07-13T00:28:39;62174.59;;;-142.46;100.00
24031;BME280;12240;51.142;22.486;2023-07-13T00:31:10;62174.59;;;-142.46;100.00
24031;BME280;12240;51.142;22.486;2023-07-13T00:33:40;62174.59;;;-142.46;100.00
24031;BME280;12240;51.142;22.486;2023-07-13T00:36:10;62174.59;;;-142.46;100.00
24031;BME280;12240;51.142;22.486;2023-07-13T00:38:39;62174.59;;;-142.46;100.00
24031;BME280;12240;51.142;22.486;2023-07-13T00:41:09;62174.59;;;-142.46;100.00
24031;BME280;12240;51.142;22.486;2023-07-13T00:43:38;62174.59;;;-142.46;100.00
24031;BME280;12240;51.142;22.486;2023-07-13T00:46:25;62174.59;;;-142.46;100.00
24031;BME280;12240;51.142;22.486;2023-07-13T00:48:58;62174.59;;;-142.46;100.00
24031;BME280;12240;51.142;22.486;2023-07-13T00:51:35;62174.59;;;-142.46;100.00
24031;BME280;12240;51.142;22.486;2023-07-13T00:54:09;62174.59;;;-142.46;100.00
24031;BME280;12240;51.142;22.486;2023-07-13T00:56:41;62174.59;;;-142.46;100.00
24031;BME280;12240;51.142;22.486;2023-07-13T00:59:13;62174.59;;;-142.46;100.00
24031;BME280;12240;51.142;22.486;2023-07-13T01:01:43;62174.59;;;-142.46;100.00
24031;BME280;12240;51.142;22.486;2023-07-13T01:04:11;62174.59;;;-142.46;100.00
24031;BME280;12240;51.142;22.486;2023-07-13T01:06:42;62174.59;;;-142.46;100.00
24031;BME280;12240;51.142;22.486;2023-07-13T01:09:13;62174.59;;;-142.46;100.00
24031;BME280;12240;51.142;22.486;2023-07-13T01:11:41;62174.59;;;-142.46;100.00
24031;BME280;12240;51.142;22.486;2023-07-13T01:14:10;62174.59;;;-142.46;100.00
24031;BME280;12240;51.142;22.486;2023-07-13T01:16:41;62174.59;;;-142.46;100.00
24031;BME280;12240;51.142;22.486;2023-07-13T01:19:44;62174.59;;;-142.46;100.00
24031;BME280;12240;51.142;22.486;2023-07-13T01:22:17;62174.59;;;-142.46;100.00
24031;BME280;12240;51.142;22.486;2023-07-13T01:24:47;62174.59;;;-142.46;100.00
24031;BME280;12240;51.142;22.486;2023-07-13T01:27:22;62174.59;;;-142.46;100.00
24031;BME280;12240;51.142;22.486;2023-07-13T01:29:53;62174.59;;;-142.46;100.00
24031;BME280;12240;51.142;22.486;2023-07-13T01:32:30;62174.59;;;-142.46;100.00
24031;BME280;12240;51.142;22.486;2023-07-13T01:35:00;62174.59;;;-142.46;100.00
24031;BME280;12240;51.142;22.486;2023-07-13T01:37:28;62174.59;;;-142.46;100.00
24031;BME280;12240;51.142;22.486;2023-07-13T01:40:02;62174.59;;;-142.46;100.00
24031;BME280;12240;51.142;22.486;2023-07-13T01:42:31;62174.59;;;-142.46;100.00
24031;BME280;12240;51.142;22.486;2023-07-13T01:44:59;62174.59;;;-142.46;100.00
24031;BME280;12240;51.142;22.486;2023-07-13T01:47:27;62174.59;;;-142.46;100.00
24031;BME280;12240;51.142;22.486;2023-07-13T01:49:57;62174.59;;;-142.46;100.00
24031;BME280;12240;51.142;22.486;2023-07-13T01:52:25;62174.59;;;-142.46;100.00
24031;BME280;12240;51.142;22.486;2023-07-13T01:54:54;62174.59;;;-142.46;100.00
24031;BME280;12240;51.142;22.486;2023-07-13T01:57:22;62174.59;;;-142.46;100.00
24031;BME280;12240;51.142;22.486;2023-07-13T01:59:50;62174.59;;;-142.46;100.00
24031;BME280;12240;51.142;22.486;2023-07-13T02:02:18;62174.59;;;-142.46;100.00
24031;BME280;12240;51.142;22.486;2023-07-13T02:04:47;62174.59;;;-142.46;100.00
24031;BME280;12240;51.142;22.486;2023-07-13T02:07:15;62174.59;;;-142.46;100.00
24031;BME280;12240;51.142;22.486;2023-07-13T02:09:44;62174.59;;;-142.46;100.00
24031;BME280;12240;51.142;22.486;2023-07-13T02:12:12;62174.59;;;-142.46;100.00
24031;BME280;12240;51.142;22.486;2023-07-13T02:14:41;62174.59;;;-142.46;100.00
24031;BME280;12240;51.142;22.486;2023-07-13T02:17:10;62174.59;;;-142.46;100.00
24031;BME280;12240;51.142;22.486;2023-07-13T02:19:39;62174.59;;;-142.46;100.00
24031;BME280;12240;51.142;22.486;2023-07-13T02:22:08;62174.59;;;-142.46;100.00
24031;BME280;12240;51.142;22.486;2023-07-13T02:24:36;62174.59;;;-142.46;100.00
24031;BME280;12240;51.142;22.486;2023-07-13T02:27:06;62174.59;;;-142.46;100.00
24031;BME280;12240;51.142;22.486;2023-07-13T02:29:34;62174.59;;;-142.46;100.00
24031;BME280;12240;51.142;22.486;2023-07-13T02:32:02;62174.59;;;-142.46;100.00
24031;BME280;12240;51.142;22.486;2023-07-13T02:34:31;62174.59;;;-142.46;100.00
24031;BME280;12240;51.142;22.486;2023-07-13T02:37:00;62174.59;;;16.84;100.00
24031;BME280;12240;51.142;22.486;2023-07-13T02:39:28;99211.50;;;16.84;100.00
24031;BME280;12240;51.142;22.486;2023-07-13T02:41:57;99031.66;;;16.06;100.00
24031;BME280;12240;51.142;22.486;2023-07-13T02:44:25;99032.72;;;16.12;100.00
24031;BME280;12240;51.142;22.486;2023-07-13T02:46:54;99023.66;;;16.13;100.00
24031;BME280;12240;51.142;22.486;2023-07-13T02:49:22;99026.34;;;16.13;100.00
24031;BME280;12240;51.142;22.486;2023-07-13T02:51:51;99037.31;;;16.18;100.00
24031;BME280;12240;51.142;22.486;2023-07-13T02:54:19;99036.94;;;16.21;100.00
24031;BME280;12240;51.142;22.486;2023-07-13T02:56:47;99026.09;;;16.08;100.00
24031;BME280;12240;51.142;22.486;2023-07-13T02:59:16;99036.78;;;16.01;100.00
24031;BME280;12240;51.142;22.486;2023-07-13T03:01:44;99024.13;;;15.95;100.00
24031;BME280;12240;51.142;22.486;2023-07-13T03:04:12;99035.72;;;15.96;100.00
24031;BME280;12240;51.142;22.486;2023-07-13T03:06:41;99033.09;;;16.02;100.00
24031;BME280;12240;51.142;22.486;2023-07-13T03:09:09;99040.94;;;16.04;100.00
24031;BME280;12240;51.142;22.486;2023-07-13T03:11:42;99042.53;;;15.98;100.00
24031;BME280;12240;51.142;22.486;2023-07-13T03:14:22;99047.88;;;15.92;100.00
24031;BME280;12240;51.142;22.486;2023-07-13T03:16:51;99042.75;;;15.97;100.00
24031;BME280;12240;51.142;22.486;2023-07-13T03:19:22;99044.25;;;16.06;100.00
24031;BME280;12240;51.142;22.486;2023-07-13T03:21:52;99035.56;;;16.04;100.00
24031;BME280;12240;51.142;22.486;2023-07-13T03:24:20;99041.84;;;16.17;100.00
24031;BME280;12240;51.142;22.486;2023-07-13T03:26:48;99040.69;;;16.26;100.00
24031;BME280;12240;51.142;22.486;2023-07-13T03:29:16;99047.75;;;16.34;100.00
24031;BME280;12240;51.142;22.486;2023-07-13T03:31:45;99042.50;;;16.47;100.00
24031;BME280;12240;51.142;22.486;2023-07-13T03:34:13;99054.34;;;16.53;100.00
24031;BME280;12240;51.142;22.486;2023-07-13T03:36:42;99049.66;;;16.68;100.00
24031;BME280;12240;51.142;22.486;2023-07-13T03:39:13;99051.31;;;16.69;100.00
24031;BME280;12240;51.142;22.486;2023-07-13T03:41:50;99047.63;;;16.76;100.00
24031;BME280;12240;51.142;22.486;2023-07-13T03:44:18;99052.00;;;16.84;100.00
24031;BME280;12240;51.142;22.486;2023-07-13T03:46:52;99053.25;;;16.88;100.00
24031;BME280;12240;51.142;22.486;2023-07-13T03:49:20;99064.03;;;16.94;100.00
24031;BME280;12240;51.142;22.486;2023-07-13T03:51:48;99060.97;;;16.97;100.00
24031;BME280;12240;51.142;22.486;2023-07-13T03:54:20;99055.19;;;17.00;100.00
24031;BME280;12240;51.142;22.486;2023-07-13T03:56:49;99056.03;;;17.07;100.00
24031;BME280;12240;51.142;22.486;2023-07-13T03:59:18;99053.78;;;17.17;100.00
24031;BME280;12240;51.142;22.486;2023-07-13T04:01:46;99061.03;;;17.23;100.00
24031;BME280;12240;51.142;22.486;2023-07-13T04:04:14;99053.63;;;17.32;100.00
24031;BME280;12240;51.142;22.486;2023-07-13T04:06:43;99053.03;;;17.36;100.00
24031;BME280;12240;51.142;22.486;2023-07-13T04:09:12;99038.13;;;17.40;100.00
24031;BME280;12240;51.142;22.486;2023-07-13T04:11:40;99050.00;;;17.59;100.00
24031;BME280;12240;51.142;22.486;2023-07-13T04:14:08;99051.47;;;17.75;100.00
24031;BME280;12240;51.142;22.486;2023-07-13T04:16:36;99038.03;;;18.07;100.00
24031;BME280;12240;51.142;22.486;2023-07-13T04:19:04;99038.81;;;18.34;100.00
24031;BME280;12240;51.142;22.486;2023-07-13T04:21:33;99044.09;;;18.86;100.00
24031;BME280;12240;51.142;22.486;2023-07-13T04:24:02;99053.25;;;19.29;100.00
24031;BME280;12240;51.142;22.486;2023-07-13T04:26:30;99059.41;;;19.49;100.00
24031;BME280;12240;51.142;22.486;2023-07-13T04:28:58;99060.69;;;19.40;100.00
24031;BME280;12240;51.142;22.486;2023-07-13T04:31:27;99068.16;;;19.38;100.00
24031;BME280;12240;51.142;22.486;2023-07-13T04:33:56;99072.91;;;19.49;100.00
24031;BME280;12240;51.142;22.486;2023-07-13T04:36:25;99085.34;;;19.50;100.00
24031;BME280;12240;51.142;22.486;2023-07-13T04:38:56;99081.63;;;19.51;100.00
24031;BME280;12240;51.142;22.486;2023-07-13T04:41:24;99080.13;;;19.55;100.00
24031;BME280;12240;51.142;22.486;2023-07-13T04:43:52;99082.22;;;19.53;100.00
24031;BME280;12240;51.142;22.486;2023-07-13T04:46:23;99080.31;;;19.60;100.00
24031;BME280;12240;51.142;22.486;2023-07-13T04:48:51;99074.31;;;19.83;100.00
24031;BME280;12240;51.142;22.486;2023-07-13T04:51:21;99075.91;;;19.97;100.00
24031;BME280;12240;51.142;22.486;2023-07-13T04:53:49;99083.06;;;20.16;100.00
24031;BME280;12240;51.142;22.486;2023-07-13T04:56:23;99086.91;;;20.27;100.00
24031;BME280;12240;51.142;22.486;2023-07-13T04:58:51;99079.41;;;20.29;100.00
24031;BME280;12240;51.142;22.486;2023-07-13T05:01:19;99075.41;;;20.38;100.00
24031;BME280;12240;51.142;22.486;2023-07-13T05:03:47;99075.59;;;20.36;100.00
24031;BME280;12240;51.142;22.486;2023-07-13T05:06:16;99077.66;;;20.41;100.00
24031;BME280;12240;51.142;22.486;2023-07-13T05:08:44;99084.75;;;20.35;100.00
24031;BME280;12240;51.142;22.486;2023-07-13T05:11:12;99103.84;;;20.40;100.00
24031;BME280;12240;51.142;22.486;2023-07-13T05:13:42;99094.63;;;20.48;100.00
24031;BME280;12240;51.142;22.486;2023-07-13T05:16:09;99087.47;;;20.35;100.00
24031;BME280;12240;51.142;22.486;2023-07-13T05:18:38;99083.38;;;20.51;100.00
24031;BME280;12240;51.142;22.486;2023-07-13T05:21:11;99098.59;;;20.70;100.00
24031;BME280;12240;51.142;22.486;2023-07-13T05:23:40;99089.69;;;20.81;100.00
24031;BME280;12240;51.142;22.486;2023-07-13T05:26:10;99096.78;;;20.82;100.00
24031;BME280;12240;51.142;22.486;2023-07-13T05:28:38;99100.03;;;20.91;100.00
24031;BME280;12240;51.142;22.486;2023-07-13T05:31:10;99106.75;;;21.06;100.00
24031;BME280;12240;51.142;22.486;2023-07-13T05:33:39;99108.13;;;21.15;100.00
24031;BME280;12240;51.142;22.486;2023-07-13T05:36:08;99114.09;;;21.17;100.00
24031;BME280;12240;51.142;22.486;2023-07-13T05:38:36;99117.88;;;21.34;100.00
24031;BME280;12240;51.142;22.486;2023-07-13T05:41:04;99123.22;;;21.41;100.00
24031;BME280;12240;51.142;22.486;2023-07-13T05:43:33;99117.31;;;21.44;100.00
24031;BME280;12240;51.142;22.486;2023-07-13T05:46:02;99110.44;;;21.59;100.00
24031;BME280;12240;51.142;22.486;2023-07-13T05:48:30;99118.63;;;21.71;100.00
24031;BME280;12240;51.142;22.486;2023-07-13T05:50:58;99117.50;;;22.08;100.00
24031;BME280;12240;51.142;22.486;2023-07-13T05:53:26;99106.56;;;22.26;100.00
24031;BME280;12240;51.142;22.486;2023-07-13T05:55:55;99106.44;;;22.33;100.00
24031;BME280;12240;51.142;22.486;2023-07-13T05:58:24;99115.66;;;22.43;100.00
24031;BME280;12240;51.142;22.486;2023-07-13T06:01:04;99110.94;;;22.50;100.00
24031;BME280;12240;51.142;22.486;2023-07-13T06:03:33;99108.81;;;22.52;100.00
24031;BME280;12240;51.142;22.486;2023-07-13T06:06:02;99102.47;;;22.58;100.00
24031;BME280;12240;51.142;22.486;2023-07-13T06:08:31;99097.41;;;22.62;100.00
24031;BME280;12240;51.142;22.486;2023-07-13T06:13:33;99094.09;;;22.83;100.00
24031;BME280;12240;51.142;22.486;2023-07-13T06:16:02;99094.94;;;22.83;100.00
24031;BME280;12240;51.142;22.486;2023-07-13T06:18:33;99088.63;;;22.94;100.00
24031;BME280;12240;51.142;22.486;2023-07-13T06:21:13;99076.97;;;22.94;100.00
24031;BME280;12240;51.142;22.486;2023-07-13T06:23:42;99073.81;;;22.85;100.00
24031;BME280;12240;51.142;22.486;2023-07-13T06:26:12;99071.88;;;22.97;100.00
24031;BME280;12240;51.142;22.486;2023-07-13T06:28:40;99066.00;;;22.89;100.00
24031;BME280;12240;51.142;22.486;2023-07-13T06:31:11;99065.31;;;22.82;100.00
24031;BME280;12240;51.142;22.486;2023-07-13T06:33:40;99059.41;;;22.73;100.00
24031;BME280;12240;51.142;22.486;2023-07-13T06:36:09;99058.94;;;22.65;100.00
24031;BME280;12240;51.142;22.486;2023-07-13T06:38:38;99044.91;;;22.68;100.00
24031;BME280;12240;51.142;22.486;2023-07-13T06:41:08;99055.34;;;22.87;100.00
24031;BME280;12240;51.142;22.486;2023-07-13T06:43:37;99048.50;;;23.08;100.00
24031;BME280;12240;51.142;22.486;2023-07-13T06:46:05;99048.78;;;23.23;100.00
24031;BME280;12240;51.142;22.486;2023-07-13T06:48:33;99048.19;;;23.33;100.00
24031;BME280;12240;51.142;22.486;2023-07-13T06:51:02;99052.31;;;23.35;100.00
24031;BME280;12240;51.142;22.486;2023-07-13T06:53:31;99049.59;;;23.63;100.00
24031;BME280;12240;51.142;22.486;2023-07-13T06:55:59;99039.13;;;23.55;100.00
24031;BME280;12240;51.142;22.486;2023-07-13T06:58:27;99032.22;;;23.64;100.00
24031;BME280;12240;51.142;22.486;2023-07-13T07:00:55;99033.16;;;23.70;100.00
24031;BME280;12240;51.142;22.486;2023-07-13T07:03:23;99035.63;;;23.71;100.00
24031;BME280;12240;51.142;22.486;2023-07-13T07:05:51;99036.97;;;23.85;100.00
24031;BME280;12240;51.142;22.486;2023-07-13T07:08:20;99031.81;;;23.72;100.00
24031;BME280;12240;51.142;22.486;2023-07-13T07:10:48;99020.81;;;23.95;100.00
24031;BME280;12240;51.142;22.486;2023-07-13T07:13:22;99026.69;;;24.04;100.00
24031;BME280;12240;51.142;22.486;2023-07-13T07:15:51;99020.25;;;24.27;100.00
24031;BME280;12240;51.142;22.486;2023-07-13T07:18:19;99026.31;;;24.50;100.00
24031;BME280;12240;51.142;22.486;2023-07-13T07:20:49;99029.56;;;24.47;100.00
24031;BME280;12240;51.142;22.486;2023-07-13T07:23:18;99038.16;;;24.23;100.00
24031;BME280;12240;51.142;22.486;2023-07-13T07:25:47;99044.31;;;23.57;100.00
24031;BME280;12240;51.142;22.486;2023-07-13T07:28:16;99056.16;;;23.11;100.00
24031;BME280;12240;51.142;22.486;2023-07-13T07:30:57;99072.13;;;22.96;100.00
24031;BME280;12240;51.142;22.486;2023-07-13T07:33:29;99073.09;;;22.67;100.00
24031;BME280;12240;51.142;22.486;2023-07-13T07:35:57;99082.31;;;22.66;100.00
24031;BME280;12240;51.142;22.486;2023-07-13T07:38:28;99085.38;;;22.58;100.00
24031;BME280;12240;51.142;22.486;2023-07-13T07:40:57;99084.91;;;22.61;100.00
24031;BME280;12240;51.142;22.486;2023-07-13T07:43:28;99089.25;;;22.62;100.00
24031;BME280;12240;51.142;22.486;2023-07-13T07:45:56;99092.44;;;22.70;100.00
24031;BME280;12240;51.142;22.486;2023-07-13T07:48:25;99095.03;;;22.65;100.00
24031;BME280;12240;51.142;22.486;2023-07-13T07:50:54;99093.53;;;22.58;100.00
24031;BME280;12240;51.142;22.486;2023-07-13T07:53:23;99092.69;;;22.57;100.00
24031;BME280;12240;51.142;22.486;2023-07-13T07:55:51;99100.59;;;22.59;100.00
24031;BME280;12240;51.142;22.486;2023-07-13T07:58:22;99102.31;;;22.42;100.00
24031;BME280;12240;51.142;22.486;2023-07-13T08:00:53;99108.09;;;22.34;100.00
24031;BME280;12240;51.142;22.486;2023-07-13T08:03:24;99114.13;;;22.36;100.00
24031;BME280;12240;51.142;22.486;2023-07-13T08:05:55;99119.75;;;22.23;100.00
24031;BME280;12240;51.142;22.486;2023-07-13T08:08:43;99125.66;;;22.31;100.00
24031;BME280;12240;51.142;22.486;2023-07-13T08:11:12;99129.94;;;22.39;100.00
24031;BME280;12240;51.142;22.486;2023-07-13T08:13:44;99127.22;;;22.39;100.00
24031;BME280;12240;51.142;22.486;2023-07-13T08:16:12;99127.06;;;22.22;100.00
24031;BME280;12240;51.142;22.486;2023-07-13T08:18:41;99129.09;;;22.50;100.00
24031;BME280;12240;51.142;22.486;2023-07-13T08:21:09;99133.16;;;22.59;100.00
24031;BME280;12240;51.142;22.486;2023-07-13T08:23:38;99128.56;;;22.59;100.00
24031;BME280;12240;51.142;22.486;2023-07-13T08:26:07;99129.16;;;22.84;100.00
24031;BME280;12240;51.142;22.486;2023-07-13T08:28:36;99132.94;;;22.72;100.00
24031;BME280;12240;51.142;22.486;2023-07-13T08:31:07;99119.22;;;22.90;100.00
24031;BME280;12240;51.142;22.486;2023-07-13T08:33:36;99120.06;;;22.90;100.00
24031;BME280;12240;51.142;22.486;2023-07-13T08:36:06;99115.22;;;22.81;100.00
24031;BME280;12240;51.142;22.486;2023-07-13T08:38:34;99116.03;;;23.04;100.00
24031;BME280;12240;51.142;22.486;2023-07-13T08:41:12;99110.50;;;22.88;100.00
24031;BME280;12240;51.142;22.486;2023-07-13T08:43:45;99111.34;;;22.77;100.00
24031;BME280;12240;51.142;22.486;2023-07-13T08:49:05;99104.13;;;22.71;100.00
24031;BME280;12240;51.142;22.486;2023-07-13T08:54:53;99102.00;;;22.73;100.00
24031;BME280;12240;51.142;22.486;2023-07-13T08:57:32;99106.94;;;22.99;100.00
24031;BME280;12240;51.142;22.486;2023-07-13T09:00:02;99096.66;;;23.13;100.00
24031;BME280;12240;51.142;22.486;2023-07-13T09:05:34;99092.09;;;23.41;100.00
24031;BME280;12240;51.142;22.486;2023-07-13T09:12:01;99077.59;;;23.92;100.00
24031;BME280;12240;51.142;22.486;2023-07-13T09:14:45;99070.63;;;24.12;100.00
24031;BME280;12240;51.142;22.486;2023-07-13T09:17:29;99067.41;;;24.15;100.00
24031;BME280;12240;51.142;22.486;2023-07-13T09:22:34;99051.06;;;24.32;100.00
24031;BME280;12240;51.142;22.486;2023-07-13T09:25:32;99043.34;;;24.24;100.00
24031;BME280;12240;51.142;22.486;2023-07-13T09:28:29;99033.28;;;24.25;100.00
24031;BME280;12240;51.142;22.486;2023-07-13T09:33:34;99031.28;;;24.37;100.00
24031;BME280;12240;51.142;22.486;2023-07-13T09:36:29;99028.69;;;24.63;100.00
24031;BME280;12240;51.142;22.486;2023-07-13T09:39:21;99024.75;;;24.92;100.00
24031;BME280;12240;51.142;22.486;2023-07-13T09:42:16;99017.53;;;25.24;100.00
24031;BME280;12240;51.142;22.486;2023-07-13T09:44:55;99010.25;;;25.08;100.00
24031;BME280;12240;51.142;22.486;2023-07-13T09:47:30;99016.38;;;25.42;100.00
24031;BME280;12240;51.142;22.486;2023-07-13T09:50:01;99009.97;;;25.80;100.00
24031;BME280;12240;51.142;22.486;2023-07-13T09:52:48;99009.97;;;25.80;100.00
24031;BME280;12240;51.142;22.486;2023-07-13T09:55:32;99003.09;;;26.82;100.00
24031;BME280;12240;51.142;22.486;2023-07-13T09:58:22;98989.66;;;26.76;100.00
24031;BME280;12240;51.142;22.486;2023-07-13T10:01:04;98996.59;;;26.93;100.00
24031;BME280;12240;51.142;22.486;2023-07-13T10:03:37;99003.31;;;27.37;100.00
24031;BME280;12240;51.142;22.486;2023-07-13T10:06:21;98995.50;;;26.99;100.00
24031;BME280;12240;51.142;22.486;2023-07-13T10:08:56;98985.41;;;27.05;100.00
24031;BME280;12240;51.142;22.486;2023-07-13T10:11:30;98996.94;;;27.22;100.00
24031;BME280;12240;51.142;22.486;2023-07-13T10:16:43;99007.00;;;27.01;100.00
24031;BME280;12240;51.142;22.486;2023-07-13T10:19:21;99005.31;;;26.95;100.00
24031;BME280;12240;51.142;22.486;2023-07-13T10:22:00;98994.94;;;26.92;100.00
24031;BME280;12240;51.142;22.486;2023-07-13T10:24:33;98991.34;;;26.87;100.00
24031;BME280;12240;51.142;22.486;2023-07-13T10:27:29;98993.97;;;26.67;100.00
24031;BME280;12240;51.142;22.486;2023-07-13T10:30:31;98994.75;;;26.62;100.00
24031;BME280;12240;51.142;22.486;2023-07-13T10:33:03;98997.19;;;26.59;100.00
24031;BME280;12240;51.142;22.486;2023-07-13T10:35:33;98986.25;;;26.54;100.00
24031;BME280;12240;51.142;22.486;2023-07-13T10:38:11;98975.34;;;26.59;100.00
24031;BME280;12240;51.142;22.486;2023-07-13T10:43:28;98981.22;;;26.77;100.00
24031;BME280;12240;51.142;22.486;2023-07-13T10:45:59;98994.53;;;26.69;100.00
24031;BME280;12240;51.142;22.486;2023-07-13T10:48:29;98990.75;;;26.80;100.00
24031;BME280;12240;51.142;22.486;2023-07-13T10:51:01;98992.09;;;26.72;100.00
24031;BME280;12240;51.142;22.486;2023-07-13T10:53:35;98991.44;;;26.55;100.00
24031;BME280;12240;51.142;22.486;2023-07-13T10:56:28;99004.78;;;26.52;100.00
24031;BME280;12240;51.142;22.486;2023-07-13T10:59:18;99008.47;;;26.30;100.00
24031;BME280;12240;51.142;22.486;2023-07-13T11:04:19;99012.34;;;26.03;100.00
24031;BME280;12240;51.142;22.486;2023-07-13T11:06:52;99016.97;;;26.02;100.00
24031;BME280;12240;51.142;22.486;2023-07-13T11:09:36;99013.38;;;25.97;100.00
24031;BME280;12240;51.142;22.486;2023-07-13T11:12:27;99001.22;;;26.09;100.00
24031;BME280;12240;51.142;22.486;2023-07-13T11:17:46;99000.22;;;26.62;100.00
24031;BME280;12240;51.142;22.486;2023-07-13T11:23:09;98998.84;;;27.21;100.00
24031;BME280;12240;51.142;22.486;2023-07-13T11:25:40;98978.44;;;27.49;100.00
24031;BME280;12240;51.142;22.486;2023-07-13T11:28:14;98967.00;;;27.77;100.00
24031;BME280;12240;51.142;22.486;2023-07-13T11:31:15;98948.41;;;27.79;100.00
24031;BME280;12240;51.142;22.486;2023-07-13T11:33:54;98946.19;;;27.61;100.00
24031;BME280;12240;51.142;22.486;2023-07-13T11:36:35;98938.00;;;27.51;100.00
24031;BME280;12240;51.142;22.486;2023-07-13T11:39:36;98939.09;;;27.60;100.00
24031;BME280;12240;51.142;22.486;2023-07-13T11:42:18;98938.25;;;27.65;100.00
24031;BME280;12240;51.142;22.486;2023-07-13T11:44:50;98935.25;;;27.71;100.00
24031;BME280;12240;51.142;22.486;2023-07-13T11:47:40;98942.66;;;28.11;100.00
24031;BME280;12240;51.142;22.486;2023-07-13T11:50:23;98928.94;;;28.16;100.00
24031;BME280;12240;51.142;22.486;2023-07-13T11:52:54;98924.31;;;28.06;100.00
24031;BME280;12240;51.142;22.486;2023-07-13T11:55:24;98933.91;;;28.04;100.00
24031;BME280;12240;51.142;22.486;2023-07-13T11:58:01;98928.41;;;28.04;100.00
24031;BME280;12240;51.142;22.486;2023-07-13T12:00:32;98928.13;;;28.05;100.00
24031;BME280;12240;51.142;22.486;2023-07-13T12:03:02;98925.97;;;27.87;100.00
24031;BME280;12240;51.142;22.486;2023-07-13T12:05:32;98926.25;;;28.01;100.00
24031;BME280;12240;51.142;22.486;2023-07-13T12:08:10;98926.78;;;28.03;100.00
24031;BME280;12240;51.142;22.486;2023-07-13T12:11:02;98935.56;;;28.00;100.00
24031;BME280;12240;51.142;22.486;2023-07-13T12:13:37;98932.56;;;27.91;100.00
24031;BME280;12240;51.142;22.486;2023-07-13T12:16:28;98949.25;;;28.05;100.00
24031;BME280;12240;51.142;22.486;2023-07-13T12:18:59;98943.50;;;27.91;100.00
24031;BME280;12240;51.142;22.486;2023-07-13T12:21:38;98938.53;;;27.78;100.00
24031;BME280;12240;51.142;22.486;2023-07-13T12:24:15;98933.63;;;27.75;100.00
24031;BME280;12240;51.142;22.486;2023-07-13T12:26:44;98936.88;;;27.37;100.00
24031;BME280;12240;51.142;22.486;2023-07-13T12:29:17;98942.34;;;27.37;100.00
24031;BME280;12240;51.142;22.486;2023-07-13T12:31:48;98947.25;;;27.30;100.00
24031;BME280;12240;51.142;22.486;2023-07-13T12:34:23;98940.72;;;27.36;100.00
24031;BME280;12240;51.142;22.486;2023-07-13T12:36:58;98943.63;;;27.24;100.00
24031;BME280;12240;51.142;22.486;2023-07-13T12:39:35;98950.75;;;27.25;100.00
24031;BME280;12240;51.142;22.486;2023-07-13T12:42:23;98955.38;;;27.15;100.00
24031;BME280;12240;51.142;22.486;2023-07-13T12:45:26;98943.88;;;27.08;100.00
24031;BME280;12240;51.142;22.486;2023-07-13T12:47:59;98940.59;;;27.11;100.00
24031;BME280;12240;51.142;22.486;2023-07-13T12:50:42;98933.19;;;26.91;100.00
24031;BME280;12240;51.142;22.486;2023-07-13T12:53:17;98940.22;;;26.72;100.00
24031;BME280;12240;51.142;22.486;2023-07-13T12:55:55;98930.00;;;26.63;100.00
24031;BME280;12240;51.142;22.486;2023-07-13T12:58:40;98937.88;;;26.49;100.00
24031;BME280;12240;51.142;22.486;2023-07-13T13:01:15;98929.34;;;26.35;100.00
24031;BME280;12240;51.142;22.486;2023-07-13T13:03:50;98937.22;;;26.27;100.00
24031;BME280;12240;51.142;22.486;2023-07-13T13:06:28;98932.59;;;26.27;100.00
24031;BME280;12240;51.142;22.486;2023-07-13T13:08:59;98932.31;;;26.29;100.00
24031;BME280;12240;51.142;22.486;2023-07-13T13:11:29;98937.47;;;26.25;100.00
24031;BME280;12240;51.142;22.486;2023-07-13T13:13:57;98930.13;;;26.26;100.00
24031;BME280;12240;51.142;22.486;2023-07-13T13:18:56;98928.69;;;26.18;100.00
24031;BME280;12240;51.142;22.486;2023-07-13T13:21:25;98933.63;;;26.21;100.00
24031;BME280;12240;51.142;22.486;2023-07-13T13:23:54;98932.72;;;26.11;100.00
24031;BME280;12240;51.142;22.486;2023-07-13T13:26:23;98941.75;;;26.11;100.00
24031;BME280;12240;51.142;22.486;2023-07-13T13:28:51;98935.22;;;26.12;100.00
24031;BME280;12240;51.142;22.486;2023-07-13T13:31:20;98946.63;;;26.09;100.00
24031;BME280;12240;51.142;22.486;2023-07-13T13:33:49;98943.06;;;26.04;100.00
24031;BME280;12240;51.142;22.486;2023-07-13T13:36:22;98946.53;;;25.99;100.00
24031;BME280;12240;51.142;22.486;2023-07-13T13:38:51;98951.13;;;25.94;100.00